createdAt,value
2018-08-14T00:00:56.975Z,1.72
2018-08-14T00:03:25.302Z,3.47
2018-08-14T00:05:53.777Z,2.80
2018-08-14T00:08:22.051Z,2.12
2018-08-14T00:10:51.522Z,2.92
2018-08-14T00:13:19.805Z,2.67
2018-08-14T00:15:48.804Z,4.58
2018-08-14T00:18:17.392Z,2.80
2018-08-14T00:20:45.688Z,2.47
2018-08-14T00:23:13.928Z,3.05
2018-08-14T00:25:42.155Z,2.37
2018-08-14T00:28:12.120Z,1.98
2018-08-14T00:30:40.729Z,3.98
2018-08-14T00:33:08.957Z,2.87
2018-08-14T00:35:37.261Z,3.52
2018-08-14T00:38:06.179Z,2.37
2018-08-14T00:40:34.423Z,2.40
2018-08-14T00:43:04.293Z,2.42
2018-08-14T00:45:32.557Z,1.95
2018-08-14T00:48:00.808Z,4.22
2018-08-14T00:50:30.345Z,2.45
2018-08-14T00:52:58.735Z,1.92
2018-08-14T00:55:27.036Z,1.77
2018-08-14T00:57:55.338Z,3.35
2018-08-14T01:00:26.718Z,2.67
2018-08-14T01:02:55.021Z,2.10
2018-08-14T01:05:23.353Z,2.58
2018-08-14T01:07:53.780Z,2.10
2018-08-14T01:10:22.031Z,2.35
2018-08-14T01:12:53.110Z,1.85
2018-08-14T01:15:23.581Z,2.12
2018-08-14T01:17:53.028Z,2.05
2018-08-14T01:20:22.718Z,2.30
2018-08-14T01:22:51.121Z,1.92
2018-08-14T01:25:19.353Z,2.00
2018-08-14T01:27:49.729Z,1.65
2018-08-14T01:30:21.849Z,2.08
2018-08-14T01:32:50.397Z,2.27
2018-08-14T01:35:18.674Z,2.42
2018-08-14T01:37:47.101Z,1.95
2018-08-14T01:40:15.749Z,2.62
2018-08-14T01:42:44.003Z,1.82
2018-08-14T01:45:13.565Z,2.27
2018-08-14T01:47:41.991Z,2.27
2018-08-14T01:50:12.193Z,1.57
2018-08-14T01:52:40.786Z,1.45
2018-08-14T01:55:09.102Z,2.25
2018-08-14T01:57:37.363Z,1.98
2018-08-14T02:00:06.569Z,1.80
2018-08-14T02:02:34.985Z,2.33
2018-08-14T02:05:03.488Z,1.77
2018-08-14T02:07:33.942Z,2.98
2018-08-14T02:10:02.201Z,1.87
2018-08-14T02:12:30.503Z,1.22
2018-08-14T02:14:58.782Z,1.17
2018-08-14T02:17:27.029Z,2.87
2018-08-14T02:19:55.253Z,1.60
2018-08-14T02:22:23.566Z,0.93
2018-08-14T02:24:51.810Z,2.05
2018-08-14T02:27:20.070Z,2.37
2018-08-14T02:29:49.071Z,1.92
2018-08-14T02:32:17.298Z,1.50
2018-08-14T02:34:45.536Z,2.58
2018-08-14T02:37:13.802Z,1.67
2018-08-14T02:39:42.043Z,1.90
2018-08-14T02:42:10.274Z,1.47
2018-08-14T02:44:38.541Z,1.57
2018-08-14T02:47:06.770Z,2.33
2018-08-14T02:49:34.998Z,1.70
2018-08-14T02:52:03.861Z,1.10
2018-08-14T02:54:32.098Z,1.12
2018-08-14T02:57:00.398Z,2.33
2018-08-14T02:59:28.722Z,2.33
2018-08-14T03:01:56.975Z,2.60
2018-08-14T03:04:25.211Z,2.02
2018-08-14T03:06:53.936Z,1.45
2018-08-14T03:09:24.160Z,1.65
2018-08-14T03:11:52.390Z,1.02
2018-08-14T03:14:20.719Z,2.35
2018-08-14T03:16:48.959Z,2.20
2018-08-14T03:19:17.223Z,1.57
2018-08-14T03:21:45.750Z,2.55
2018-08-14T03:24:13.998Z,1.60
2018-08-14T03:26:42.280Z,1.27
2018-08-14T03:29:11.398Z,1.85
2018-08-14T03:31:39.694Z,2.10
2018-08-14T03:34:07.952Z,1.95
2018-08-14T03:36:36.434Z,1.10
2018-08-14T03:39:08.508Z,1.30
2018-08-14T03:41:36.954Z,1.65
2018-08-14T03:44:05.209Z,1.65
2018-08-14T03:46:33.451Z,2.60
2018-08-14T03:49:02.850Z,1.05
2018-08-14T03:51:31.078Z,1.37
2018-08-14T03:53:59.326Z,1.98
2018-08-14T03:56:27.673Z,1.30
2018-08-14T03:58:55.921Z,1.85
2018-08-14T04:01:24.255Z,1.62
2018-08-14T04:03:52.907Z,3.30
2018-08-14T04:06:21.138Z,1.25
2018-08-14T04:08:50.892Z,1.00
2018-08-14T04:11:19.363Z,1.40
2018-08-14T04:13:47.599Z,1.25
2018-08-14T04:16:15.970Z,1.62
2018-08-14T04:18:44.517Z,1.20
2018-08-14T04:21:12.817Z,1.20
2018-08-14T04:23:41.075Z,1.47
2018-08-14T04:26:10.366Z,1.00
2018-08-14T04:28:38.676Z,1.17
2018-08-14T04:31:06.897Z,1.10
2018-08-14T04:33:35.399Z,1.50
2018-08-14T04:36:03.641Z,1.17
2018-08-14T04:38:31.882Z,1.37
2018-08-14T04:41:00.650Z,1.30
2018-08-14T04:43:28.867Z,1.10
2018-08-14T04:45:57.185Z,1.00
2018-08-14T04:48:25.885Z,1.00
2018-08-14T04:50:54.149Z,1.27
2018-08-14T04:53:22.395Z,1.27
2018-08-14T04:55:50.666Z,1.25
2018-08-14T04:58:18.919Z,1.82
2018-08-14T05:00:47.253Z,0.93
2018-08-14T05:03:15.650Z,1.37
2018-08-14T05:05:43.922Z,1.42
2018-08-14T05:08:14.958Z,0.80
2018-08-14T05:10:43.253Z,1.07
2018-08-14T05:13:11.500Z,1.55
2018-08-14T05:15:40.103Z,1.65
2018-08-14T05:18:08.378Z,2.08
2018-08-14T05:20:36.636Z,3.87
2018-08-14T05:23:06.982Z,4.62
2018-08-14T05:25:35.294Z,4.53
2018-08-14T05:28:03.649Z,2.45
2018-08-14T05:30:33.012Z,4.50
2018-08-14T05:33:01.242Z,6.80
2018-08-14T05:35:29.466Z,7.10
2018-08-14T05:37:58.087Z,8.08
2018-08-14T05:40:26.351Z,5.05
2018-08-14T05:42:54.614Z,8.43
2018-08-14T05:45:22.899Z,3.42
2018-08-14T05:47:51.138Z,6.03
2018-08-14T05:50:19.860Z,4.17
2018-08-14T05:52:49.244Z,7.33
2018-08-14T05:55:17.459Z,3.65
2018-08-14T05:57:45.715Z,7.58
2018-08-14T06:00:16.974Z,4.15
2018-08-14T06:02:45.249Z,7.83
2018-08-14T06:05:13.498Z,4.95
2018-08-14T06:07:43.542Z,6.25
2018-08-14T06:10:12.094Z,5.83
2018-08-14T06:12:40.302Z,3.33
2018-08-14T06:15:11.521Z,5.53
2018-08-14T06:17:39.999Z,4.85
2018-08-14T06:20:10.238Z,4.12
2018-08-14T06:22:39.040Z,3.52
2018-08-14T06:25:07.590Z,3.33
2018-08-14T06:27:36.406Z,3.50
2018-08-14T06:30:13.531Z,2.27
2018-08-14T06:32:41.965Z,4.03
2018-08-14T06:35:10.503Z,3.42
2018-08-14T06:37:39.292Z,2.55
2018-08-14T06:40:09.827Z,4.97
2018-08-14T06:42:38.074Z,2.30
2018-08-14T06:45:08.536Z,3.37
2018-08-14T06:47:37.226Z,3.10
2018-08-14T06:50:06.450Z,5.03
2018-08-14T06:52:35.005Z,2.50
2018-08-14T06:55:03.591Z,5.72
2018-08-14T06:57:32.117Z,5.90
2018-08-14T07:00:00.382Z,6.40
2018-08-14T07:02:28.698Z,8.53
2018-08-14T07:04:57.208Z,7.00
2018-08-14T07:07:25.430Z,5.47
2018-08-14T07:09:54.839Z,6.58
2018-08-14T07:12:23.418Z,9.90
2018-08-14T07:14:51.677Z,6.83
2018-08-14T07:17:19.971Z,6.53
2018-08-14T07:19:48.762Z,7.87
2018-08-14T07:22:17.062Z,7.00
2018-08-14T07:24:45.457Z,6.70
2018-08-14T07:27:14.287Z,6.62
2018-08-14T07:29:42.580Z,8.73
2018-08-14T07:32:10.826Z,10.03
2018-08-14T07:34:39.214Z,8.93
2018-08-14T07:37:07.446Z,7.12
2018-08-14T07:39:35.986Z,7.87
2018-08-14T07:42:05.611Z,12.00
2018-08-14T07:44:33.839Z,8.03
2018-08-14T07:47:02.105Z,8.50
2018-08-14T07:49:31.222Z,7.15
2018-08-14T07:51:59.486Z,7.97
2018-08-14T07:54:27.745Z,9.40
2018-08-14T07:56:56.065Z,10.45
2018-08-14T07:59:24.334Z,9.20
2018-08-14T08:01:52.567Z,8.18
2018-08-14T08:04:21.128Z,7.33
2018-08-14T08:06:49.371Z,7.45
2018-08-14T08:09:18.804Z,6.80
2018-08-14T08:11:47.902Z,7.53
2018-08-14T08:14:16.153Z,9.33
2018-08-14T08:16:44.387Z,7.45
2018-08-14T08:19:12.710Z,7.53
2018-08-14T08:21:41.043Z,6.25
2018-08-14T08:24:09.322Z,8.50
2018-08-14T08:26:37.812Z,7.92
2018-08-14T08:29:06.105Z,6.03
2018-08-14T08:31:34.434Z,6.55
2018-08-14T08:34:03.146Z,7.62
2018-08-14T08:36:31.485Z,5.53
2018-08-14T08:38:59.911Z,7.75
2018-08-14T08:41:28.458Z,6.67
2018-08-14T08:43:56.805Z,7.15
2018-08-14T08:46:25.043Z,8.10
2018-08-14T08:48:54.533Z,6.58
2018-08-14T08:51:22.798Z,8.08
2018-08-14T08:53:51.013Z,6.37
2018-08-14T08:56:19.462Z,4.42
2018-08-14T08:58:47.701Z,9.48
2018-08-14T09:01:16.007Z,5.60
2018-08-14T09:03:44.703Z,6.58
2018-08-14T09:06:13.102Z,6.17
2018-08-14T09:08:43.391Z,5.72
2018-08-14T09:11:11.667Z,6.20
2018-08-14T09:13:40.482Z,5.87
2018-08-14T09:16:08.785Z,7.28
2018-08-14T09:18:37.111Z,5.85
2018-08-14T09:21:05.686Z,5.85
2018-08-14T09:23:33.937Z,6.80
2018-08-14T09:26:02.267Z,5.67
2018-08-14T09:28:31.094Z,5.72
2018-08-14T09:30:59.379Z,5.28
2018-08-14T09:33:27.644Z,6.53
2018-08-14T09:35:56.273Z,5.92
2018-08-14T09:38:24.556Z,5.05
2018-08-14T09:40:52.786Z,5.35
2018-08-14T09:43:21.149Z,6.62
2018-08-14T09:45:50.412Z,7.20
2018-08-14T09:48:18.738Z,5.92
2018-08-14T09:50:47.219Z,4.97
2018-08-14T09:53:15.522Z,5.83
2018-08-14T09:55:43.774Z,8.45
2018-08-14T09:58:13.430Z,6.40
2018-08-14T10:00:47.005Z,6.75
2018-08-14T10:03:21.998Z,7.10
2018-08-14T10:05:51.310Z,6.37
2018-08-14T10:08:21.817Z,5.33
2018-08-14T10:10:50.121Z,4.58
2018-08-14T10:13:19.514Z,4.25
2018-08-14T10:15:50.374Z,8.65
2018-08-14T10:18:24.518Z,6.62
2018-08-14T10:20:53.242Z,6.67
2018-08-14T10:23:21.660Z,6.50
2018-08-14T10:25:50.153Z,6.97
2018-08-14T10:28:20.539Z,8.85
2018-08-14T10:30:48.879Z,6.60
2018-08-14T10:33:17.153Z,5.22
2018-08-14T10:35:45.643Z,5.75
2018-08-14T10:38:14.052Z,4.22
2018-08-14T10:40:42.321Z,6.05
2018-08-14T10:43:17.331Z,4.75
2018-08-14T10:45:45.627Z,4.53
2018-08-14T10:48:13.891Z,8.00
2018-08-14T10:50:42.741Z,5.40
2018-08-14T10:53:11.051Z,5.33
2018-08-14T10:55:39.321Z,5.17
2018-08-14T10:58:08.202Z,5.20
2018-08-14T11:00:36.386Z,4.87
2018-08-14T11:03:04.794Z,4.20
2018-08-14T11:05:33.362Z,4.58
2018-08-14T11:08:04.104Z,7.03
2018-08-14T11:10:38.080Z,6.75
2018-08-14T11:13:06.265Z,6.28
2018-08-14T11:15:34.565Z,5.80
2018-08-14T11:18:03.288Z,6.08
2018-08-14T11:20:31.542Z,6.83
2018-08-14T11:23:00.802Z,4.97
2018-08-14T11:25:29.606Z,8.63
2018-08-14T11:27:57.986Z,5.55
2018-08-14T11:30:26.817Z,6.83
2018-08-14T11:32:55.805Z,10.88
2018-08-14T11:35:25.037Z,7.90
2018-08-14T11:37:53.334Z,5.78
2018-08-14T11:40:21.597Z,6.35
2018-08-14T11:42:49.849Z,5.22
2018-08-14T11:45:22.197Z,8.08
2018-08-14T11:47:50.437Z,7.08
2018-08-14T11:50:19.615Z,8.28
2018-08-14T11:52:49.362Z,5.08
2018-08-14T11:55:18.798Z,6.50
2018-08-14T11:57:47.818Z,7.08
2018-08-14T12:00:26.276Z,6.83
2018-08-14T12:02:56.180Z,7.70
2018-08-14T12:05:24.502Z,5.95
2018-08-14T12:07:54.580Z,6.85
2018-08-14T12:10:24.186Z,8.75
2018-08-14T12:12:52.538Z,8.60
2018-08-14T12:15:20.730Z,6.03
2018-08-14T12:17:49.430Z,9.03
2018-08-14T12:20:19.185Z,5.42
2018-08-14T12:22:47.414Z,8.83
2018-08-14T12:25:17.641Z,5.15
2018-08-14T12:27:46.568Z,8.68
2018-08-14T12:30:17.260Z,8.63
2018-08-14T12:32:45.985Z,5.37
2018-08-14T12:35:14.275Z,8.48
2018-08-14T12:37:42.539Z,9.53
2018-08-14T12:40:11.846Z,10.00
2018-08-14T12:42:40.090Z,7.53
2018-08-14T12:45:11.593Z,9.00
2018-08-14T12:47:40.134Z,8.08
2018-08-14T12:50:08.561Z,5.55
2018-08-14T12:52:36.985Z,9.80
2018-08-14T12:55:05.524Z,14.18
2018-08-14T12:57:33.756Z,9.00
2018-08-14T13:00:02.315Z,9.93
2018-08-14T13:02:30.638Z,9.85
2018-08-14T13:04:58.915Z,10.53
2018-08-14T13:07:28.186Z,9.43
2018-08-14T13:09:57.902Z,14.13
2018-08-14T13:12:26.133Z,8.50
2018-08-14T13:14:54.550Z,11.22
2018-08-14T13:17:22.795Z,12.47
2018-08-14T13:19:51.105Z,8.13
2018-08-14T13:22:19.482Z,11.45
2018-08-14T13:24:47.722Z,13.90
2018-08-14T13:27:15.975Z,10.08
2018-08-14T13:29:45.051Z,13.45
2018-08-14T13:32:13.290Z,10.82
2018-08-14T13:34:41.556Z,11.48
2018-08-14T13:37:10.062Z,9.60
2018-08-14T13:39:38.335Z,10.20
2018-08-14T13:42:06.606Z,10.45
2018-08-14T13:44:35.211Z,12.85
2018-08-14T13:47:03.497Z,10.38
2018-08-14T13:49:31.715Z,11.40
2018-08-14T13:52:00.999Z,13.32
2018-08-14T13:54:29.250Z,11.15
2018-08-14T13:56:57.510Z,15.90
2018-08-14T13:59:26.402Z,10.03
2018-08-14T14:01:54.830Z,12.37
2018-08-14T14:04:23.094Z,15.80
2018-08-14T14:06:51.778Z,15.48
2018-08-14T14:09:22.592Z,10.40
2018-08-14T14:11:50.893Z,10.35
2018-08-14T14:14:19.334Z,8.90
2018-08-14T14:16:47.567Z,6.92
2018-08-14T14:19:15.826Z,11.55
2018-08-14T14:21:44.479Z,9.05
2018-08-14T14:24:12.791Z,9.33
2018-08-14T14:26:41.035Z,13.10
2018-08-14T14:29:10.371Z,14.05
2018-08-14T14:31:38.662Z,12.45
2018-08-14T14:34:06.897Z,9.13
2018-08-14T14:36:35.414Z,8.90
2018-08-14T14:39:04.938Z,9.83
2018-08-14T14:41:33.183Z,13.78
2018-08-14T14:44:01.631Z,15.38
2018-08-14T14:46:29.919Z,14.95
2018-08-14T14:48:58.189Z,10.10
2018-08-14T14:51:27.503Z,12.80
2018-08-14T14:53:55.865Z,12.13
2018-08-14T14:56:24.146Z,11.43
2018-08-14T14:58:52.842Z,8.95
2018-08-14T15:01:21.096Z,10.80
2018-08-14T15:03:49.345Z,13.05
2018-08-14T15:06:18.582Z,15.13
2018-08-14T15:08:47.982Z,16.15
2018-08-14T15:11:16.270Z,15.05
2018-08-14T15:13:44.547Z,14.75
2018-08-14T15:16:12.800Z,15.30
2018-08-14T15:18:41.071Z,11.78
2018-08-14T15:21:09.624Z,17.60
2018-08-14T15:23:37.958Z,18.87
2018-08-14T15:26:06.254Z,22.22
2018-08-14T15:28:57.671Z,19.35
2018-08-14T15:31:26.191Z,16.93
2018-08-14T15:33:55.179Z,23.55
2018-08-14T15:36:24.890Z,13.70
2018-08-14T15:44:40.973Z,27.60
2018-08-14T15:47:09.229Z,14.28
2018-08-14T15:49:37.657Z,15.38
2018-08-14T15:52:06.131Z,11.73
2018-08-14T15:54:34.382Z,19.23
2018-08-14T15:57:02.640Z,20.45
2018-08-14T15:59:31.153Z,10.68
2018-08-14T16:01:59.415Z,9.70
2018-08-14T16:04:30.159Z,10.85
2018-08-14T16:06:58.466Z,11.15
2018-08-14T16:09:27.058Z,9.85
2018-08-14T16:11:55.319Z,8.98
2018-08-14T16:14:24.034Z,10.88
2018-08-14T16:16:52.362Z,10.90
2018-08-14T16:19:20.673Z,10.45
2018-08-14T16:21:49.651Z,9.55
2018-08-14T16:24:18.801Z,16.42
2018-08-14T16:26:47.126Z,12.70
2018-08-14T16:29:15.904Z,10.82
2018-08-14T16:31:44.182Z,9.78
2018-08-14T16:34:12.489Z,11.18
2018-08-14T16:36:40.929Z,7.08
2018-08-14T16:39:11.102Z,15.43
2018-08-14T16:41:39.453Z,10.28
2018-08-14T16:44:08.423Z,7.55
2018-08-14T16:46:38.029Z,8.78
2018-08-14T16:49:06.290Z,4.72
2018-08-14T16:51:34.900Z,4.15
2018-08-14T16:54:03.162Z,3.20
2018-08-14T16:56:31.437Z,6.45
2018-08-14T16:59:01.158Z,3.35
2018-08-14T17:01:29.429Z,7.47
2018-08-14T17:03:57.671Z,2.90
2018-08-14T17:06:26.195Z,9.03
2018-08-14T17:08:54.506Z,2.33
2018-08-14T17:11:22.802Z,5.12
2018-08-14T17:13:51.654Z,4.72
2018-08-14T17:16:19.926Z,3.10
2018-08-14T17:18:48.191Z,4.47
2018-08-14T17:21:15.671Z,2.15
2018-08-14T17:23:43.922Z,1.92
2018-08-14T17:26:12.171Z,2.17
2018-08-14T17:28:40.986Z,3.08
2018-08-14T17:31:09.335Z,2.83
2018-08-14T17:33:37.645Z,4.65
2018-08-14T17:36:06.847Z,3.25
2018-08-14T17:38:35.118Z,2.92
2018-08-14T17:41:03.419Z,5.05
2018-08-14T17:43:31.724Z,6.15
2018-08-14T17:46:00.012Z,4.30
2018-08-14T17:48:29.446Z,2.25
2018-08-14T17:50:58.033Z,2.40
2018-08-14T17:53:27.320Z,2.20
2018-08-14T17:55:55.711Z,4.12
2018-08-14T17:58:24.011Z,4.00
2018-08-14T18:00:52.254Z,2.35
2018-08-14T18:03:27.378Z,2.20
2018-08-14T18:05:55.695Z,3.12
2018-08-14T18:08:24.073Z,2.50
2018-08-14T18:10:52.663Z,4.37
2018-08-14T18:13:20.925Z,2.33
2018-08-14T18:15:49.210Z,3.67
2018-08-14T18:18:17.516Z,2.30
2018-08-14T18:20:45.919Z,2.25
2018-08-14T18:23:14.184Z,4.72
2018-08-14T18:25:43.759Z,4.30
2018-08-14T18:28:11.979Z,2.52
2018-08-14T18:30:40.258Z,2.35
2018-08-14T18:33:09.103Z,2.45
2018-08-14T18:35:37.341Z,2.47
2018-08-14T18:38:05.610Z,2.20
2018-08-14T18:40:33.991Z,3.10
2018-08-14T18:43:02.264Z,2.20
2018-08-14T18:45:30.605Z,5.15
2018-08-14T18:47:59.675Z,2.10
2018-08-14T18:50:28.026Z,4.62
2018-08-14T18:52:56.374Z,3.05
2018-08-14T18:55:25.405Z,2.00
2018-08-14T18:57:53.708Z,2.15
2018-08-14T19:00:23.893Z,2.40
2018-08-14T19:02:53.415Z,2.05
2018-08-14T19:05:23.549Z,2.02
2018-08-14T19:07:51.875Z,2.47
2018-08-14T19:10:21.624Z,3.50
2018-08-14T19:12:50.863Z,2.20
2018-08-14T19:15:29.666Z,3.40
2018-08-14T19:17:57.968Z,2.45
2018-08-14T19:20:26.259Z,2.50
2018-08-14T19:22:54.589Z,2.27
2018-08-14T19:25:22.983Z,2.58
2018-08-14T19:27:51.270Z,2.35
2018-08-14T19:30:19.675Z,2.30
2018-08-14T19:32:47.954Z,2.17
2018-08-14T19:35:16.856Z,2.47
2018-08-14T19:37:46.409Z,2.25
2018-08-14T19:40:18.605Z,2.40
2018-08-14T19:42:47.677Z,2.67
2018-08-14T19:45:16.067Z,4.50
2018-08-14T19:47:44.431Z,2.62
2018-08-14T19:50:15.482Z,3.42
2018-08-14T19:52:43.792Z,6.22
2018-08-14T19:55:14.680Z,2.33
2018-08-14T19:57:44.466Z,3.83
2018-08-14T20:00:14.125Z,2.85
2018-08-14T20:02:43.020Z,2.47
2018-08-14T20:05:14.566Z,3.40
2018-08-14T20:07:42.836Z,3.92
2018-08-14T20:10:12.193Z,4.67
2018-08-14T20:12:40.830Z,2.77
2018-08-14T20:15:11.222Z,3.85
2018-08-14T20:17:39.597Z,2.80
2018-08-14T20:20:10.106Z,3.17
2018-08-14T20:22:38.382Z,3.35
2018-08-14T20:25:06.882Z,3.33
2018-08-14T20:27:35.604Z,2.67
2018-08-14T20:30:05.609Z,2.65
2018-08-14T20:32:33.848Z,2.42
2018-08-14T20:35:02.571Z,2.62
2018-08-14T20:37:30.902Z,2.27
2018-08-14T20:39:59.250Z,2.75
2018-08-14T20:42:27.722Z,2.87
2018-08-14T20:44:56.035Z,4.85
2018-08-14T20:47:24.407Z,3.70
2018-08-14T20:49:53.978Z,6.08
2018-08-14T20:52:22.261Z,4.17
2018-08-14T20:54:50.580Z,2.62
2018-08-14T20:57:19.331Z,2.00
2018-08-14T20:59:47.584Z,2.17
2018-08-14T21:02:15.842Z,3.33
2018-08-14T21:04:46.202Z,4.67
2018-08-14T21:07:14.472Z,2.12
2018-08-14T21:09:42.750Z,2.20
2018-08-14T21:12:11.648Z,2.17
2018-08-14T21:14:39.922Z,2.00
2018-08-14T21:17:08.195Z,3.25
2018-08-14T21:19:36.786Z,2.62
2018-08-14T21:22:05.241Z,3.33
2018-08-14T21:24:33.547Z,2.10
2018-08-14T21:27:01.830Z,3.20
2018-08-14T21:29:30.086Z,2.17
2018-08-14T21:31:58.335Z,2.17
2018-08-14T21:34:26.631Z,2.27
2018-08-14T21:36:54.983Z,1.95
2018-08-14T21:39:23.303Z,1.72
2018-08-14T21:41:51.897Z,3.25
2018-08-14T21:44:20.167Z,1.87
2018-08-14T21:46:48.505Z,1.85
2018-08-14T21:49:18.978Z,1.87
2018-08-14T21:51:47.309Z,1.90
2018-08-14T21:54:15.507Z,3.85
2018-08-14T21:56:45.256Z,1.77
2018-08-14T21:59:13.595Z,2.17
2018-08-14T22:01:42.518Z,1.85
2018-08-14T22:04:12.859Z,1.85
2018-08-14T22:06:41.127Z,2.58
2018-08-14T22:09:09.362Z,3.40
2018-08-14T22:11:37.723Z,2.08
2018-08-14T22:14:05.978Z,1.50
2018-08-14T22:16:34.355Z,3.45
2018-08-14T22:19:02.907Z,2.33
2018-08-14T22:21:31.274Z,2.55
2018-08-14T22:23:59.421Z,2.20
2018-08-14T22:26:28.246Z,2.45
2018-08-14T22:28:56.502Z,2.27
2018-08-14T22:31:24.753Z,2.05
2018-08-14T22:33:53.148Z,1.87
2018-08-14T22:36:21.397Z,2.40
2018-08-14T22:38:49.773Z,1.67
2018-08-14T22:41:18.411Z,1.90
2018-08-14T22:43:46.743Z,1.70
2018-08-14T22:46:15.038Z,1.87
2018-08-14T22:48:44.010Z,1.72
2018-08-14T22:51:12.246Z,3.50
2018-08-14T22:53:40.475Z,2.52
2018-08-14T22:56:10.028Z,1.50
2018-08-14T22:58:38.378Z,1.80
2018-08-14T23:01:06.630Z,2.67
2018-08-14T23:03:36.804Z,1.42
2018-08-14T23:06:05.073Z,1.52
2018-08-14T23:08:33.331Z,1.75
2018-08-14T23:11:01.937Z,1.60
2018-08-14T23:13:30.264Z,1.57
2018-08-14T23:16:05.872Z,1.67
2018-08-14T23:18:35.715Z,1.45
2018-08-14T23:21:04.302Z,1.50
2018-08-14T23:23:32.612Z,1.72
2018-08-14T23:26:00.931Z,1.65
2018-08-14T23:28:29.154Z,1.90
2018-08-14T23:30:57.591Z,1.95
2018-08-14T23:33:25.907Z,1.85
2018-08-14T23:35:54.222Z,1.45
2018-08-14T23:38:22.986Z,1.50
2018-08-14T23:40:51.255Z,1.52
2018-08-14T23:43:19.529Z,2.95
2018-08-14T23:45:48.154Z,1.75
2018-08-14T23:48:16.854Z,2.45
2018-08-14T23:50:45.086Z,1.50
2018-08-14T23:53:13.378Z,1.50
2018-08-14T23:55:41.636Z,1.40
2018-08-14T23:58:09.969Z,2.37
